createdAt,value
2018-10-11T00:00:01.404Z,14.00
2018-10-11T00:02:29.387Z,14.43
2018-10-11T00:04:57.074Z,13.43
2018-10-11T00:07:25.684Z,13.90
2018-10-11T00:09:53.767Z,12.40
2018-10-11T00:12:21.503Z,14.27
2018-10-11T00:14:49.333Z,13.70
2018-10-11T00:17:16.760Z,16.40
2018-10-11T00:19:44.162Z,15.27
2018-10-11T00:22:11.729Z,14.03
2018-10-11T00:24:39.143Z,15.97
2018-10-11T00:27:06.610Z,15.40
2018-10-11T00:29:34.210Z,15.03
2018-10-11T00:32:01.812Z,15.87
2018-10-11T00:34:35.094Z,14.80
2018-10-11T00:37:02.571Z,14.77
2018-10-11T00:39:30.053Z,14.37
2018-10-11T00:41:57.763Z,14.30
2018-10-11T00:44:25.603Z,13.70
2018-10-11T00:46:53.066Z,14.77
2018-10-11T00:49:20.520Z,14.40
2018-10-11T00:51:47.923Z,14.53
2018-10-11T00:54:15.388Z,14.33
2018-10-11T00:56:42.813Z,14.20
2018-10-11T00:59:11.075Z,14.93
2018-10-11T01:01:38.723Z,16.17
2018-10-11T01:04:06.245Z,15.10
2018-10-11T01:06:33.663Z,16.07
2018-10-11T01:09:01.252Z,16.60
2018-10-11T01:11:28.946Z,16.20
2018-10-11T01:13:56.854Z,17.50
2018-10-11T01:16:24.476Z,16.17
2018-10-11T01:18:52.428Z,17.80
2018-10-11T01:21:20.174Z,15.57
2018-10-11T01:23:48.070Z,15.43
2018-10-11T01:26:15.738Z,15.93
2018-10-11T01:28:43.189Z,14.67
2018-10-11T01:31:16.014Z,14.83
2018-10-11T01:33:43.452Z,14.67
2018-10-11T01:36:10.870Z,15.17
2018-10-11T01:38:38.367Z,15.50
2018-10-11T01:41:05.994Z,16.40
2018-10-11T01:43:33.583Z,15.33
2018-10-11T01:46:01.178Z,15.90
2018-10-11T01:48:28.794Z,15.77
2018-10-11T01:50:56.691Z,17.40
2018-10-11T01:53:24.153Z,16.07
2018-10-11T01:55:51.576Z,15.60
2018-10-11T01:58:19.025Z,15.53
2018-10-11T02:00:46.460Z,15.83
2018-10-11T02:03:13.903Z,15.97
2018-10-11T02:05:41.339Z,15.43
2018-10-11T02:08:09.159Z,16.53
2018-10-11T02:10:36.729Z,14.90
2018-10-11T02:13:04.204Z,13.50
2018-10-11T02:15:31.624Z,15.37
2018-10-11T02:17:59.048Z,15.37
2018-10-11T02:20:27.078Z,16.90
2018-10-11T02:22:54.540Z,16.07
2018-10-11T02:25:21.983Z,15.87
2018-10-11T02:27:49.525Z,16.43
2018-10-11T02:30:17.494Z,16.80
2018-10-11T02:32:45.446Z,15.20
2018-10-11T02:35:13.531Z,16.83
2018-10-11T02:37:42.042Z,16.40
2018-10-11T02:40:09.700Z,16.07
2018-10-11T02:42:37.351Z,16.67
2018-10-11T02:45:05.144Z,17.40
2018-10-11T02:47:32.560Z,15.90
2018-10-11T02:49:59.996Z,15.37
2018-10-11T02:52:27.398Z,16.50
2018-10-11T02:54:54.866Z,17.47
2018-10-11T02:57:27.739Z,18.00
2018-10-11T02:59:55.224Z,17.40
2018-10-11T03:02:23.850Z,17.17
2018-10-11T03:04:51.350Z,16.27
2018-10-11T03:07:19.301Z,16.37
2018-10-11T03:09:46.923Z,16.00
2018-10-11T03:12:14.431Z,16.60
2018-10-11T03:14:42.068Z,15.10
2018-10-11T03:17:10.136Z,15.30
2018-10-11T03:19:37.750Z,15.80
2018-10-11T03:22:05.208Z,15.30
2018-10-11T03:24:32.651Z,15.97
2018-10-11T03:27:00.786Z,15.83
2018-10-11T03:29:29.302Z,16.43
2018-10-11T03:31:56.706Z,17.37
2018-10-11T03:34:24.507Z,16.57
2018-10-11T03:36:51.914Z,16.00
2018-10-11T03:39:19.889Z,17.40
2018-10-11T03:41:47.716Z,16.23
2018-10-11T03:44:15.333Z,16.37
2018-10-11T03:46:43.266Z,17.03
2018-10-11T03:49:11.115Z,16.03
2018-10-11T03:51:38.948Z,15.03
2018-10-11T03:54:06.543Z,15.60
2018-10-11T03:56:33.982Z,18.80
2018-10-11T03:59:01.408Z,16.60
2018-10-11T04:01:28.899Z,17.17
2018-10-11T04:03:56.981Z,15.93
2018-10-11T04:06:24.353Z,16.07
2018-10-11T04:08:51.708Z,16.33
2018-10-11T04:11:19.284Z,16.73
2018-10-11T04:13:46.672Z,15.80
2018-10-11T04:16:14.172Z,18.87
2018-10-11T04:18:41.948Z,17.17
2018-10-11T04:21:10.400Z,17.13
2018-10-11T04:23:37.759Z,17.87
2018-10-11T04:26:05.193Z,18.77
2018-10-11T04:28:32.570Z,16.50
2018-10-11T04:31:00.287Z,16.57
2018-10-11T04:33:28.277Z,17.73
2018-10-11T04:35:56.088Z,16.80
2018-10-11T04:38:23.417Z,19.20
2018-10-11T04:40:50.916Z,17.67
2018-10-11T04:43:18.410Z,17.60
2018-10-11T04:45:45.927Z,17.93
2018-10-11T04:48:13.560Z,18.30
2018-10-11T04:50:42.750Z,18.77
2018-10-11T04:53:11.602Z,17.40
2018-10-11T04:55:39.725Z,17.37
2018-10-11T04:58:07.124Z,16.50
2018-10-11T05:00:34.502Z,17.67
2018-10-11T05:03:01.850Z,17.47
2018-10-11T05:05:29.257Z,18.40
2018-10-11T05:07:56.620Z,17.20
2018-10-11T05:10:24.016Z,18.00
2018-10-11T05:12:51.434Z,14.17
2018-10-11T05:15:18.861Z,18.70
2018-10-11T05:17:46.667Z,19.10
2018-10-11T05:20:14.468Z,18.37
2018-10-11T05:22:42.055Z,17.77
2018-10-11T05:25:09.620Z,17.60
2018-10-11T05:27:37.039Z,18.97
2018-10-11T05:30:04.623Z,18.10
2018-10-11T05:32:32.076Z,18.80
2018-10-11T05:34:59.436Z,16.30
2018-10-11T05:37:26.852Z,19.13
2018-10-11T05:39:54.234Z,16.70
2018-10-11T05:42:21.742Z,31.87
2018-10-11T05:44:49.238Z,42.97
2018-10-11T05:47:16.822Z,19.00
2018-10-11T05:49:44.431Z,17.77
2018-10-11T05:52:12.388Z,19.30
2018-10-11T05:54:40.020Z,19.98
2018-10-11T05:57:07.411Z,18.53
2018-10-11T05:59:34.831Z,19.10
2018-10-11T06:02:02.220Z,18.60
2018-10-11T06:04:29.578Z,18.40
2018-10-11T06:06:57.033Z,19.23
2018-10-11T06:09:24.453Z,18.90
2018-10-11T06:11:52.012Z,16.07
2018-10-11T06:14:19.426Z,18.20
2018-10-11T06:16:46.852Z,17.80
2018-10-11T06:19:15.140Z,19.03
2018-10-11T06:21:43.320Z,16.97
2018-10-11T06:24:11.136Z,16.63
2018-10-11T06:26:38.500Z,17.30
2018-10-11T06:29:06.132Z,16.20
2018-10-11T06:31:33.539Z,15.53
2018-10-11T06:34:00.935Z,16.60
2018-10-11T06:36:28.650Z,15.70
2018-10-11T06:38:56.539Z,18.30
2018-10-11T06:41:23.968Z,16.97
2018-10-11T06:43:51.941Z,17.37
2018-10-11T06:46:19.464Z,30.10
2018-10-11T06:48:46.950Z,17.30
2018-10-11T06:51:14.546Z,15.77
2018-10-11T06:53:42.266Z,18.50
2018-10-11T06:56:09.719Z,17.80
2018-10-11T06:58:37.087Z,17.63
2018-10-11T07:01:04.499Z,18.37
2018-10-11T07:03:31.863Z,16.93
2018-10-11T07:05:59.225Z,19.03
2018-10-11T07:08:26.611Z,18.40
2018-10-11T07:10:53.974Z,18.40
2018-10-11T07:13:21.421Z,19.30
2018-10-11T07:15:48.871Z,19.37
2018-10-11T07:18:16.380Z,17.23
2018-10-11T07:20:44.336Z,19.57
2018-10-11T07:23:11.967Z,20.50
2018-10-11T07:25:39.371Z,20.30
2018-10-11T07:28:06.793Z,18.17
2018-10-11T07:30:34.136Z,21.70
2018-10-11T07:33:01.543Z,22.70
2018-10-11T07:35:29.131Z,19.60
2018-10-11T07:37:56.325Z,20.50
2018-10-11T07:40:23.926Z,19.30
2018-10-11T07:42:51.270Z,20.90
2018-10-11T07:45:19.065Z,19.37
2018-10-11T07:47:46.708Z,20.13
2018-10-11T07:50:14.409Z,23.00
2018-10-11T07:52:41.805Z,27.03
2018-10-11T07:55:09.224Z,21.00
2018-10-11T07:57:36.590Z,22.30
2018-10-11T08:00:04.082Z,22.73
2018-10-11T08:02:31.441Z,21.40
2018-10-11T08:04:58.820Z,18.70
2018-10-11T08:07:26.237Z,22.37
2018-10-11T08:09:54.033Z,22.20
2018-10-11T08:12:21.397Z,22.93
2018-10-11T08:14:48.898Z,22.97
2018-10-11T08:17:16.911Z,23.23
2018-10-11T08:19:44.372Z,19.47
2018-10-11T08:22:11.717Z,20.07
2018-10-11T08:24:39.154Z,20.67
2018-10-11T08:27:06.510Z,20.40
2018-10-11T08:29:33.896Z,25.53
2018-10-11T08:32:01.240Z,21.10
2018-10-11T08:34:28.651Z,21.13
2018-10-11T08:37:02.588Z,20.40
2018-10-11T08:39:30.016Z,21.13
2018-10-11T08:41:57.373Z,21.30
2018-10-11T08:44:24.882Z,18.90
2018-10-11T08:46:52.249Z,20.90
2018-10-11T08:49:19.786Z,18.23
2018-10-11T08:51:47.500Z,20.50
2018-10-11T08:54:20.548Z,28.60
2018-10-11T08:56:48.113Z,27.60
2018-10-11T08:59:15.868Z,23.97
2018-10-11T09:01:43.373Z,21.80
2018-10-11T09:04:10.793Z,22.03
2018-10-11T09:06:39.362Z,22.57
2018-10-11T09:09:07.696Z,23.50
2018-10-11T09:11:35.144Z,21.27
2018-10-11T09:14:02.588Z,22.90
2018-10-11T09:16:29.926Z,24.27
2018-10-11T09:18:57.313Z,21.23
2018-10-11T09:21:24.683Z,21.57
2018-10-11T09:23:52.056Z,22.77
2018-10-11T09:26:19.452Z,29.60
2018-10-11T09:28:46.995Z,25.47
2018-10-11T09:31:14.484Z,25.80
2018-10-11T09:33:42.060Z,25.83
2018-10-11T09:36:09.619Z,23.00
2018-10-11T09:38:37.282Z,23.00
2018-10-11T09:41:04.727Z,22.10
2018-10-11T09:43:32.106Z,21.57
2018-10-11T09:45:59.636Z,25.10
2018-10-11T09:48:27.007Z,22.77
2018-10-11T09:50:54.434Z,25.10
2018-10-11T09:53:21.791Z,23.63
2018-10-11T09:55:49.184Z,23.87
2018-10-11T09:58:16.545Z,22.90
2018-10-11T10:00:49.399Z,22.80
2018-10-11T10:03:16.854Z,19.97
2018-10-11T10:05:44.430Z,21.00
2018-10-11T10:08:11.919Z,20.37
2018-10-11T10:10:39.551Z,16.70
2018-10-11T10:13:07.210Z,20.50
2018-10-11T10:15:34.682Z,19.67
2018-10-11T10:18:02.003Z,21.10
2018-10-11T10:20:29.392Z,17.30
2018-10-11T10:22:56.742Z,17.90
2018-10-11T10:25:24.131Z,20.53
2018-10-11T10:27:51.531Z,20.67
2018-10-11T10:30:24.269Z,17.50
2018-10-11T10:32:51.615Z,18.97
2018-10-11T10:35:19.132Z,18.87
2018-10-11T10:37:46.534Z,16.50
2018-10-11T10:40:13.985Z,15.93
2018-10-11T10:42:41.726Z,16.77
2018-10-11T10:45:09.668Z,15.20
2018-10-11T10:47:37.280Z,11.10
2018-10-11T10:50:04.629Z,13.37
2018-10-11T10:52:32.037Z,17.93
2018-10-11T10:54:59.399Z,18.10
2018-10-11T10:57:26.791Z,15.40
2018-10-11T10:59:54.151Z,16.20
2018-10-11T11:02:21.535Z,16.33
2018-10-11T11:04:48.949Z,17.30
2018-10-11T11:07:16.440Z,18.17
2018-10-11T11:09:43.866Z,13.73
2018-10-11T11:12:11.465Z,16.82
2018-10-11T11:14:39.088Z,14.10
2018-10-11T11:17:06.529Z,11.60
2018-10-11T11:19:33.894Z,13.60
2018-10-11T11:22:01.299Z,13.00
2018-10-11T11:24:28.669Z,11.70
2018-10-11T11:26:56.077Z,13.50
2018-10-11T11:29:23.451Z,13.93
2018-10-11T11:31:50.841Z,19.10
2018-10-11T11:34:18.223Z,14.90
2018-10-11T11:36:45.818Z,14.87
2018-10-11T11:39:13.248Z,11.43
2018-10-11T11:41:41.009Z,14.57
2018-10-11T11:44:08.389Z,11.83
2018-10-11T11:46:35.771Z,14.67
2018-10-11T11:49:03.156Z,14.00
2018-10-11T11:51:30.675Z,15.03
2018-10-11T11:53:58.068Z,14.20
2018-10-11T11:56:25.470Z,9.70
2018-10-11T11:58:52.832Z,13.57
2018-10-11T12:01:20.453Z,15.00
2018-10-11T12:03:47.819Z,15.27
2018-10-11T12:06:15.279Z,12.60
2018-10-11T12:08:42.942Z,15.60
2018-10-11T12:11:10.700Z,16.40
2018-10-11T12:13:38.083Z,15.77
2018-10-11T12:16:05.491Z,10.67
2018-10-11T12:18:32.890Z,14.70
2018-10-11T12:21:00.239Z,15.27
2018-10-11T12:23:27.632Z,14.47
2018-10-11T12:25:54.980Z,14.30
2018-10-11T12:28:22.388Z,12.13
2018-10-11T12:30:49.854Z,13.27
2018-10-11T12:33:17.388Z,11.80
2018-10-11T12:35:45.021Z,11.17
2018-10-11T12:38:12.895Z,19.80
2018-10-11T12:40:40.387Z,19.73
2018-10-11T12:43:07.796Z,11.07
2018-10-11T12:45:35.180Z,13.57
2018-10-11T12:48:02.568Z,14.47
2018-10-11T12:50:29.919Z,12.10
2018-10-11T12:52:57.326Z,9.93
2018-10-11T12:55:24.686Z,11.03
2018-10-11T12:57:52.127Z,11.60
2018-10-11T13:00:19.530Z,12.00
2018-10-11T13:02:47.476Z,9.63
2018-10-11T13:05:14.883Z,11.37
2018-10-11T13:07:42.843Z,13.80
2018-10-11T13:10:10.291Z,11.93
2018-10-11T13:12:37.663Z,13.57
2018-10-11T13:15:05.399Z,13.30
2018-10-11T13:17:38.428Z,12.83
2018-10-11T13:20:00.203Z,12.53
2018-10-11T13:22:27.597Z,11.40
2018-10-11T13:24:54.966Z,10.57
2018-10-11T13:27:22.571Z,11.97
2018-10-11T13:29:50.890Z,12.43
2018-10-11T13:32:18.522Z,18.67
2018-10-11T13:34:46.025Z,10.00
2018-10-11T13:37:13.647Z,11.33
2018-10-11T13:39:46.082Z,10.60
2018-10-11T13:42:08.636Z,10.47
2018-10-11T13:44:36.006Z,9.83
2018-10-11T13:47:03.392Z,10.00
2018-10-11T13:49:30.772Z,11.57
2018-10-11T13:51:58.128Z,11.77
2018-10-11T13:54:25.520Z,9.90
2018-10-11T13:56:58.015Z,10.10
2018-10-11T13:59:20.429Z,10.93
2018-10-11T14:01:47.824Z,9.07
2018-10-11T14:04:15.750Z,11.10
2018-10-11T14:06:43.678Z,11.40
2018-10-11T14:09:12.536Z,10.43
2018-10-11T14:11:40.356Z,10.80
2018-10-11T14:14:07.799Z,9.33
2018-10-11T14:16:35.170Z,9.33
2018-10-11T14:19:02.585Z,11.77
2018-10-11T14:21:29.966Z,12.63
2018-10-11T14:23:57.503Z,11.63
2018-10-11T14:26:24.866Z,11.30
2018-10-11T14:28:52.902Z,11.17
2018-10-11T14:31:20.909Z,11.93
2018-10-11T14:33:48.340Z,11.80
2018-10-11T14:36:16.120Z,10.97
2018-10-11T14:38:43.731Z,11.60
2018-10-11T14:41:11.088Z,12.30
2018-10-11T14:43:38.522Z,14.60
2018-10-11T14:46:06.131Z,14.30
2018-10-11T14:48:33.528Z,12.20
2018-10-11T14:51:00.963Z,12.63
2018-10-11T14:53:28.303Z,11.47
2018-10-11T14:55:55.672Z,11.73
2018-10-11T14:58:23.129Z,10.40
2018-10-11T15:00:50.646Z,12.07
2018-10-11T15:03:18.197Z,10.10
2018-10-11T15:05:45.841Z,9.67
2018-10-11T15:08:13.389Z,12.27
2018-10-11T15:10:40.824Z,11.00
2018-10-11T15:13:08.162Z,9.40
2018-10-11T15:15:35.567Z,12.23
2018-10-11T15:18:02.977Z,11.77
2018-10-11T15:20:30.367Z,11.03
2018-10-11T15:22:57.702Z,11.10
2018-10-11T15:25:25.291Z,10.10
2018-10-11T15:27:52.807Z,10.07
2018-10-11T15:30:20.346Z,11.20
2018-10-11T15:32:47.823Z,11.30
2018-10-11T15:35:15.592Z,11.10
2018-10-11T15:37:43.052Z,10.80
2018-10-11T15:40:10.444Z,23.50
2018-10-11T15:42:37.950Z,24.37
2018-10-11T15:45:06.000Z,15.83
2018-10-11T15:47:33.347Z,24.20
2018-10-11T15:50:00.718Z,18.60
2018-10-11T15:52:28.136Z,14.47
2018-10-11T15:54:56.142Z,13.43
2018-10-11T15:57:23.742Z,12.20
2018-10-11T15:59:51.250Z,13.77
2018-10-11T16:02:18.844Z,13.40
2018-10-11T16:04:46.398Z,12.83
2018-10-11T16:07:14.056Z,13.17
2018-10-11T16:09:41.446Z,14.27
2018-10-11T16:12:08.823Z,14.80
2018-10-11T16:14:36.162Z,14.33
2018-10-11T16:17:03.523Z,13.50
2018-10-11T16:19:30.862Z,14.93
2018-10-11T16:21:58.181Z,15.03
2018-10-11T16:24:25.650Z,13.67
2018-10-11T16:26:52.977Z,14.07
2018-10-11T16:29:20.408Z,14.30
2018-10-11T16:31:48.058Z,31.03
2018-10-11T16:34:15.792Z,27.50
2018-10-11T16:36:43.179Z,14.70
2018-10-11T16:39:10.707Z,17.03
2018-10-11T16:41:38.032Z,14.43
2018-10-11T16:44:05.428Z,12.90
2018-10-11T16:46:33.087Z,11.93
2018-10-11T16:49:00.690Z,12.20
2018-10-11T16:51:28.300Z,12.33
2018-10-11T16:53:59.787Z,13.07
2018-10-11T16:56:27.228Z,11.67
2018-10-11T16:58:54.660Z,11.43
2018-10-11T17:01:22.164Z,12.87
2018-10-11T17:03:49.522Z,12.63
2018-10-11T17:06:16.932Z,12.57
2018-10-11T17:08:44.900Z,13.30
2018-10-11T17:11:12.339Z,14.43
2018-10-11T17:13:39.705Z,14.50
2018-10-11T17:16:07.087Z,14.07
2018-10-11T17:18:34.463Z,12.83
2018-10-11T17:21:01.796Z,13.57
2018-10-11T17:23:29.162Z,14.30
2018-10-11T17:25:56.562Z,13.75
2018-10-11T17:28:23.922Z,15.93
2018-10-11T17:30:51.369Z,15.07
2018-10-11T17:33:18.737Z,18.10
2018-10-11T17:35:46.135Z,15.90
2018-10-11T17:38:13.504Z,16.00
2018-10-11T17:40:40.841Z,16.47
2018-10-11T17:43:08.295Z,13.77
2018-10-11T17:45:35.669Z,17.40
2018-10-11T17:49:27.404Z,16.80
2018-10-11T17:51:54.839Z,16.03
2018-10-11T17:54:22.200Z,18.07
2018-10-11T17:56:49.701Z,17.93
2018-10-11T17:59:17.060Z,17.63
2018-10-11T18:01:44.423Z,15.58
2018-10-11T18:04:11.811Z,17.00
2018-10-11T18:06:39.171Z,16.13
2018-10-11T18:09:06.934Z,26.03
2018-10-11T18:11:34.601Z,32.40
2018-10-11T18:14:01.974Z,18.57
2018-10-11T18:16:29.468Z,18.20
2018-10-11T18:18:57.204Z,17.37
2018-10-11T18:21:25.061Z,16.30
2018-10-11T18:23:52.610Z,16.60
2018-10-11T18:26:19.998Z,17.17
2018-10-11T18:28:47.374Z,17.53
2018-10-11T18:31:14.708Z,15.30
2018-10-11T18:33:42.089Z,14.43
2018-10-11T18:36:09.494Z,16.70
2018-10-11T18:38:36.837Z,17.37
2018-10-11T18:41:04.367Z,15.73
2018-10-11T18:43:31.746Z,14.40
2018-10-11T18:45:59.275Z,13.73
2018-10-11T18:48:26.823Z,13.20
2018-10-11T18:50:54.707Z,12.63
2018-10-11T18:53:22.017Z,13.23
2018-10-11T18:55:49.762Z,13.37
2018-10-11T18:58:17.741Z,13.60
2018-10-11T19:00:45.406Z,14.80
2018-10-11T19:03:13.077Z,14.77
2018-10-11T19:05:40.477Z,13.87
2018-10-11T19:08:08.304Z,13.70
2018-10-11T19:10:36.116Z,15.80
2018-10-11T19:13:04.114Z,16.67
2018-10-11T19:15:31.951Z,17.70
2018-10-11T19:17:59.750Z,16.30
2018-10-11T19:20:28.267Z,16.33
2018-10-11T19:22:56.544Z,15.00
2018-10-11T19:25:24.404Z,17.10
2018-10-11T19:27:52.044Z,15.50
2018-10-11T19:30:19.405Z,15.07
2018-10-11T19:32:46.753Z,17.43
2018-10-11T19:35:14.123Z,16.20
2018-10-11T19:37:41.467Z,16.20
2018-10-11T19:40:09.546Z,17.20
2018-10-11T19:42:36.926Z,17.13
2018-10-11T19:45:04.463Z,15.27
2018-10-11T19:47:31.894Z,17.70
2018-10-11T19:49:59.483Z,17.03
2018-10-11T19:52:27.117Z,16.97
2018-10-11T19:54:54.771Z,15.87
2018-10-11T19:57:22.156Z,16.00
2018-10-11T19:59:49.511Z,17.40
2018-10-11T20:02:16.951Z,17.73
2018-10-11T20:04:44.290Z,17.47
2018-10-11T20:07:11.657Z,17.80
2018-10-11T20:09:39.051Z,16.60
2018-10-11T20:12:06.636Z,18.07
2018-10-11T20:14:34.029Z,18.17
2018-10-11T20:17:01.479Z,17.90
2018-10-11T20:19:29.059Z,15.70
2018-10-11T20:21:56.715Z,16.40
2018-10-11T20:24:24.042Z,16.10
2018-10-11T20:26:51.437Z,17.73
2018-10-11T20:29:18.779Z,15.90
2018-10-11T20:31:46.147Z,17.30
2018-10-11T20:34:13.471Z,16.30
2018-10-11T20:36:40.844Z,16.43
2018-10-11T20:39:08.486Z,17.60
2018-10-11T20:41:35.978Z,19.10
2018-10-11T20:44:03.464Z,18.23
2018-10-11T20:46:31.511Z,19.03
2018-10-11T20:49:00.215Z,18.70
2018-10-11T20:51:28.827Z,18.30
2018-10-11T20:53:56.692Z,17.00
2018-10-11T20:56:24.144Z,16.63
2018-10-11T20:58:51.939Z,16.77
2018-10-11T21:01:19.633Z,16.90
2018-10-11T21:03:47.279Z,16.77
2018-10-11T21:06:15.023Z,15.53
2018-10-11T21:08:42.367Z,16.30
2018-10-11T21:11:09.751Z,15.27
2018-10-11T21:13:37.209Z,13.97
2018-10-11T21:16:04.728Z,14.20
2018-10-11T21:18:32.635Z,15.30
2018-10-11T21:21:00.634Z,14.53
2018-10-11T21:23:28.851Z,12.37
2018-10-11T21:25:56.593Z,14.47
2018-10-11T21:28:24.000Z,12.93
2018-10-11T21:30:51.319Z,13.77
2018-10-11T21:33:18.701Z,15.90
2018-10-11T21:35:46.043Z,16.17
2018-10-11T21:38:13.433Z,15.20
2018-10-11T21:40:40.778Z,13.23
2018-10-11T21:43:08.352Z,14.77
2018-10-11T21:45:36.212Z,14.13
2018-10-11T21:48:04.028Z,12.90
2018-10-11T21:50:31.916Z,13.70
2018-10-11T21:53:00.619Z,14.90
2018-10-11T21:55:28.363Z,12.80
2018-10-11T21:57:55.829Z,13.53
2018-10-11T22:00:28.653Z,13.63
2018-10-11T22:02:56.027Z,15.13
2018-10-11T22:05:23.389Z,13.13
2018-10-11T22:07:50.750Z,15.10
2018-10-11T22:10:18.108Z,19.50
2018-10-11T22:12:45.477Z,15.37
2018-10-11T22:15:12.871Z,13.87
2018-10-11T22:17:40.195Z,14.07
2018-10-11T22:20:07.635Z,13.73
2018-10-11T22:22:35.101Z,14.57
2018-10-11T22:25:02.523Z,14.30
2018-10-11T22:27:30.590Z,14.83
2018-10-11T22:29:58.586Z,13.33
2018-10-11T22:32:26.346Z,15.80
2018-10-11T22:34:54.140Z,16.50
2018-10-11T22:37:21.489Z,14.57
2018-10-11T22:39:48.861Z,14.33
2018-10-11T22:42:16.200Z,15.07
2018-10-11T22:44:43.591Z,14.77
2018-10-11T22:47:10.933Z,15.07
2018-10-11T22:49:38.332Z,16.00
2018-10-11T22:52:05.830Z,14.83
2018-10-11T22:54:33.323Z,14.50
2018-10-11T22:57:01.112Z,13.90
2018-10-11T22:59:28.626Z,13.27
2018-10-11T23:01:55.979Z,13.77
2018-10-11T23:04:23.495Z,12.90
2018-10-11T23:06:50.856Z,13.70
2018-10-11T23:09:18.248Z,13.20
2018-10-11T23:11:45.602Z,13.30
2018-10-11T23:14:12.973Z,14.93
2018-10-11T23:16:41.042Z,16.00
2018-10-11T23:19:08.461Z,15.10
2018-10-11T23:21:35.947Z,14.23
2018-10-11T23:24:03.555Z,13.50
2018-10-11T23:26:31.272Z,14.83
2018-10-11T23:28:58.735Z,19.77
2018-10-11T23:31:26.226Z,16.47
2018-10-11T23:33:53.566Z,15.57
2018-10-11T23:36:20.956Z,12.80
2018-10-11T23:38:48.641Z,13.90
2018-10-11T23:41:16.407Z,14.33
2018-10-11T23:43:44.107Z,14.40
2018-10-11T23:46:11.925Z,11.90
2018-10-11T23:48:39.289Z,14.03
2018-10-11T23:51:06.813Z,14.20
2018-10-11T23:53:34.417Z,14.60
2018-10-11T23:56:02.187Z,14.97
2018-10-11T23:58:29.755Z,13.90
